sensor_id;sensor_type;location;lat;lon;timestamp;P1;durP1;ratioP1;P2;durP2;ratioP2
49978;SDS011;35869;50.990;6.962;2024-01-30T00:04:27;9.82;;;7.32;;
49978;SDS011;35869;50.990;6.962;2024-01-30T00:09:27;14.15;;;8.15;;
49978;SDS011;35869;50.990;6.962;2024-01-30T00:14:27;9.38;;;7.45;;
49978;SDS011;35869;50.990;6.962;2024-01-30T00:19:27;13.52;;;8.02;;
49978;SDS011;35869;50.990;6.962;2024-01-30T00:24:28;12.13;;;7.50;;
49978;SDS011;35869;50.990;6.962;2024-01-30T00:29:28;9.10;;;7.32;;
49978;SDS011;35869;50.990;6.962;2024-01-30T00:34:28;11.48;;;7.88;;
49978;SDS011;35869;50.990;6.962;2024-01-30T00:39:28;10.52;;;7.93;;
49978;SDS011;35869;50.990;6.962;2024-01-30T00:44:28;12.98;;;8.77;;
49978;SDS011;35869;50.990;6.962;2024-01-30T00:49:28;13.15;;;8.70;;
49978;SDS011;35869;50.990;6.962;2024-01-30T00:54:29;12.05;;;8.57;;
49978;SDS011;35869;50.990;6.962;2024-01-30T00:59:29;11.70;;;8.35;;
49978;SDS011;35869;50.990;6.962;2024-01-30T01:04:29;11.73;;;8.27;;
49978;SDS011;35869;50.990;6.962;2024-01-30T01:09:29;9.95;;;7.75;;
49978;SDS011;35869;50.990;6.962;2024-01-30T01:14:30;12.52;;;8.10;;
49978;SDS011;35869;50.990;6.962;2024-01-30T01:19:30;12.60;;;8.77;;
49978;SDS011;35869;50.990;6.962;2024-01-30T01:24:31;8.48;;;7.10;;
49978;SDS011;35869;50.990;6.962;2024-01-30T01:34:31;12.68;;;9.15;;
49978;SDS011;35869;50.990;6.962;2024-01-30T01:39:32;12.02;;;9.23;;
49978;SDS011;35869;50.990;6.962;2024-01-30T01:44:32;11.15;;;8.85;;
49978;SDS011;35869;50.990;6.962;2024-01-30T01:49:32;9.45;;;7.93;;
49978;SDS011;35869;50.990;6.962;2024-01-30T01:54:32;11.80;;;8.25;;
49978;SDS011;35869;50.990;6.962;2024-01-30T01:59:33;13.88;;;7.75;;
49978;SDS011;35869;50.990;6.962;2024-01-30T02:04:34;10.75;;;8.73;;
49978;SDS011;35869;50.990;6.962;2024-01-30T02:09:34;11.57;;;8.48;;
49978;SDS011;35869;50.990;6.962;2024-01-30T02:14:43;11.02;;;9.18;;
49978;SDS011;35869;50.990;6.962;2024-01-30T02:19:44;12.70;;;8.73;;
49978;SDS011;35869;50.990;6.962;2024-01-30T02:24:45;11.02;;;7.57;;
49978;SDS011;35869;50.990;6.962;2024-01-30T02:29:45;10.65;;;8.25;;
49978;SDS011;35869;50.990;6.962;2024-01-30T02:34:45;9.53;;;7.33;;
49978;SDS011;35869;50.990;6.962;2024-01-30T02:39:46;10.70;;;8.60;;
49978;SDS011;35869;50.990;6.962;2024-01-30T02:44:46;10.68;;;8.10;;
49978;SDS011;35869;50.990;6.962;2024-01-30T02:49:46;11.80;;;8.30;;
49978;SDS011;35869;50.990;6.962;2024-01-30T02:54:46;10.88;;;8.30;;
49978;SDS011;35869;50.990;6.962;2024-01-30T02:59:47;12.95;;;8.40;;
49978;SDS011;35869;50.990;6.962;2024-01-30T03:04:47;10.50;;;7.65;;
49978;SDS011;35869;50.990;6.962;2024-01-30T03:09:47;11.55;;;7.50;;
49978;SDS011;35869;50.990;6.962;2024-01-30T03:14:48;11.55;;;8.23;;
49978;SDS011;35869;50.990;6.962;2024-01-30T03:19:48;10.30;;;8.05;;
49978;SDS011;35869;50.990;6.962;2024-01-30T03:24:48;9.50;;;7.47;;
49978;SDS011;35869;50.990;6.962;2024-01-30T03:29:48;11.93;;;7.78;;
49978;SDS011;35869;50.990;6.962;2024-01-30T03:34:49;9.80;;;7.03;;
49978;SDS011;35869;50.990;6.962;2024-01-30T03:39:49;9.10;;;6.95;;
49978;SDS011;35869;50.990;6.962;2024-01-30T03:44:49;13.65;;;6.72;;
49978;SDS011;35869;50.990;6.962;2024-01-30T03:49:49;10.38;;;7.50;;
49978;SDS011;35869;50.990;6.962;2024-01-30T03:54:49;9.43;;;6.80;;
49978;SDS011;35869;50.990;6.962;2024-01-30T03:59:51;10.65;;;7.65;;
49978;SDS011;35869;50.990;6.962;2024-01-30T04:04:51;12.60;;;7.72;;
49978;SDS011;35869;50.990;6.962;2024-01-30T04:09:51;9.63;;;7.20;;
49978;SDS011;35869;50.990;6.962;2024-01-30T04:14:51;11.25;;;7.75;;
49978;SDS011;35869;50.990;6.962;2024-01-30T04:19:51;12.98;;;7.53;;
49978;SDS011;35869;50.990;6.962;2024-01-30T04:24:52;11.27;;;7.30;;
49978;SDS011;35869;50.990;6.962;2024-01-30T04:29:52;10.18;;;7.88;;
49978;SDS011;35869;50.990;6.962;2024-01-30T04:34:52;14.32;;;8.40;;
49978;SDS011;35869;50.990;6.962;2024-01-30T04:39:52;18.88;;;8.32;;
49978;SDS011;35869;50.990;6.962;2024-01-30T04:44:53;12.93;;;8.00;;
49978;SDS011;35869;50.990;6.962;2024-01-30T04:49:53;12.63;;;7.72;;
49978;SDS011;35869;50.990;6.962;2024-01-30T04:54:53;18.45;;;9.60;;
49978;SDS011;35869;50.990;6.962;2024-01-30T04:59:53;9.30;;;7.95;;
49978;SDS011;35869;50.990;6.962;2024-01-30T05:04:53;10.55;;;8.50;;
49978;SDS011;35869;50.990;6.962;2024-01-30T05:09:54;11.43;;;8.57;;
49978;SDS011;35869;50.990;6.962;2024-01-30T05:14:54;9.95;;;7.72;;
49978;SDS011;35869;50.990;6.962;2024-01-30T05:19:54;13.30;;;10.33;;
49978;SDS011;35869;50.990;6.962;2024-01-30T05:24:55;15.00;;;9.38;;
49978;SDS011;35869;50.990;6.962;2024-01-30T05:29:55;13.80;;;7.82;;
49978;SDS011;35869;50.990;6.962;2024-01-30T05:34:55;10.05;;;7.63;;
49978;SDS011;35869;50.990;6.962;2024-01-30T05:39:55;13.05;;;9.05;;
49978;SDS011;35869;50.990;6.962;2024-01-30T05:44:55;13.40;;;9.63;;
49978;SDS011;35869;50.990;6.962;2024-01-30T05:49:56;11.52;;;8.15;;
49978;SDS011;35869;50.990;6.962;2024-01-30T05:54:56;13.18;;;7.88;;
49978;SDS011;35869;50.990;6.962;2024-01-30T05:59:56;14.40;;;8.65;;
49978;SDS011;35869;50.990;6.962;2024-01-30T06:04:56;16.65;;;9.07;;
49978;SDS011;35869;50.990;6.962;2024-01-30T06:09:57;15.85;;;8.95;;
49978;SDS011;35869;50.990;6.962;2024-01-30T06:14:57;11.35;;;7.55;;
49978;SDS011;35869;50.990;6.962;2024-01-30T06:19:57;11.30;;;7.60;;
49978;SDS011;35869;50.990;6.962;2024-01-30T06:24:58;10.77;;;8.50;;
49978;SDS011;35869;50.990;6.962;2024-01-30T06:29:58;12.30;;;9.50;;
49978;SDS011;35869;50.990;6.962;2024-01-30T06:34:58;13.82;;;8.95;;
49978;SDS011;35869;50.990;6.962;2024-01-30T06:39:58;12.18;;;7.88;;
49978;SDS011;35869;50.990;6.962;2024-01-30T06:44:58;12.80;;;7.78;;
49978;SDS011;35869;50.990;6.962;2024-01-30T06:49:59;11.75;;;8.23;;
49978;SDS011;35869;50.990;6.962;2024-01-30T06:54:59;9.65;;;7.57;;
49978;SDS011;35869;50.990;6.962;2024-01-30T06:59:59;11.27;;;8.05;;
49978;SDS011;35869;50.990;6.962;2024-01-30T07:04:59;17.25;;;8.05;;
49978;SDS011;35869;50.990;6.962;2024-01-30T07:09:59;15.35;;;7.40;;
49978;SDS011;35869;50.990;6.962;2024-01-30T07:15:00;9.90;;;7.35;;
49978;SDS011;35869;50.990;6.962;2024-01-30T07:20:00;13.02;;;8.15;;
49978;SDS011;35869;50.990;6.962;2024-01-30T07:25:00;11.13;;;8.43;;
49978;SDS011;35869;50.990;6.962;2024-01-30T07:30:00;18.83;;;8.80;;
49978;SDS011;35869;50.990;6.962;2024-01-30T07:35:01;10.05;;;7.38;;
49978;SDS011;35869;50.990;6.962;2024-01-30T07:40:01;13.68;;;7.95;;
49978;SDS011;35869;50.990;6.962;2024-01-30T07:45:02;10.52;;;8.45;;
49978;SDS011;35869;50.990;6.962;2024-01-30T07:50:02;12.93;;;8.40;;
49978;SDS011;35869;50.990;6.962;2024-01-30T07:55:03;13.40;;;8.33;;
49978;SDS011;35869;50.990;6.962;2024-01-30T08:00:03;15.17;;;9.07;;
49978;SDS011;35869;50.990;6.962;2024-01-30T08:05:04;16.70;;;9.60;;
49978;SDS011;35869;50.990;6.962;2024-01-30T08:10:05;14.00;;;10.47;;
49978;SDS011;35869;50.990;6.962;2024-01-30T08:15:05;11.00;;;7.82;;
49978;SDS011;35869;50.990;6.962;2024-01-30T08:20:06;10.77;;;7.37;;
49978;SDS011;35869;50.990;6.962;2024-01-30T08:25:07;11.60;;;7.90;;
49978;SDS011;35869;50.990;6.962;2024-01-30T08:30:07;12.77;;;7.87;;
49978;SDS011;35869;50.990;6.962;2024-01-30T08:35:08;21.17;;;9.43;;
49978;SDS011;35869;50.990;6.962;2024-01-30T08:40:08;11.40;;;8.73;;
49978;SDS011;35869;50.990;6.962;2024-01-30T08:45:09;11.77;;;8.27;;
49978;SDS011;35869;50.990;6.962;2024-01-30T08:50:09;12.85;;;9.25;;
49978;SDS011;35869;50.990;6.962;2024-01-30T08:55:09;15.15;;;8.65;;
49978;SDS011;35869;50.990;6.962;2024-01-30T09:00:10;20.63;;;9.85;;
49978;SDS011;35869;50.990;6.962;2024-01-30T09:05:11;12.30;;;8.18;;
49978;SDS011;35869;50.990;6.962;2024-01-30T09:10:11;13.88;;;9.02;;
49978;SDS011;35869;50.990;6.962;2024-01-30T09:15:11;14.67;;;9.37;;
49978;SDS011;35869;50.990;6.962;2024-01-30T09:20:12;11.38;;;8.38;;
49978;SDS011;35869;50.990;6.962;2024-01-30T09:25:12;14.68;;;9.07;;
49978;SDS011;35869;50.990;6.962;2024-01-30T09:30:12;11.15;;;8.25;;
49978;SDS011;35869;50.990;6.962;2024-01-30T09:35:12;10.30;;;8.80;;
49978;SDS011;35869;50.990;6.962;2024-01-30T09:40:13;13.10;;;8.63;;
49978;SDS011;35869;50.990;6.962;2024-01-30T09:45:14;14.15;;;9.23;;
49978;SDS011;35869;50.990;6.962;2024-01-30T09:50:14;12.07;;;8.57;;
49978;SDS011;35869;50.990;6.962;2024-01-30T09:55:15;12.63;;;7.88;;
49978;SDS011;35869;50.990;6.962;2024-01-30T10:00:15;15.40;;;7.70;;
49978;SDS011;35869;50.990;6.962;2024-01-30T10:05:16;8.83;;;7.37;;
49978;SDS011;35869;50.990;6.962;2024-01-30T10:10:21;12.57;;;7.45;;
49978;SDS011;35869;50.990;6.962;2024-01-30T10:15:22;9.77;;;8.07;;
49978;SDS011;35869;50.990;6.962;2024-01-30T10:20:22;12.40;;;7.70;;
49978;SDS011;35869;50.990;6.962;2024-01-30T10:25:25;10.75;;;7.50;;
49978;SDS011;35869;50.990;6.962;2024-01-30T10:30:26;10.07;;;7.05;;
49978;SDS011;35869;50.990;6.962;2024-01-30T10:35:27;21.48;;;8.13;;
49978;SDS011;35869;50.990;6.962;2024-01-30T10:40:27;13.60;;;8.20;;
49978;SDS011;35869;50.990;6.962;2024-01-30T10:45:28;12.57;;;7.57;;
49978;SDS011;35869;50.990;6.962;2024-01-30T10:50:29;11.67;;;7.43;;
49978;SDS011;35869;50.990;6.962;2024-01-30T10:55:30;12.57;;;6.70;;
49978;SDS011;35869;50.990;6.962;2024-01-30T11:00:31;11.95;;;8.15;;
49978;SDS011;35869;50.990;6.962;2024-01-30T11:05:33;19.60;;;9.30;;
49978;SDS011;35869;50.990;6.962;2024-01-30T11:10:33;11.15;;;6.60;;
49978;SDS011;35869;50.990;6.962;2024-01-30T11:15:44;8.13;;;5.78;;
49978;SDS011;35869;50.990;6.962;2024-01-30T11:20:47;11.15;;;7.47;;
49978;SDS011;35869;50.990;6.962;2024-01-30T11:25:48;13.35;;;7.70;;
49978;SDS011;35869;50.990;6.962;2024-01-30T11:30:48;13.97;;;6.83;;
49978;SDS011;35869;50.990;6.962;2024-01-30T11:35:49;11.68;;;7.35;;
49978;SDS011;35869;50.990;6.962;2024-01-30T11:40:50;9.77;;;7.35;;
49978;SDS011;35869;50.990;6.962;2024-01-30T11:50:51;13.50;;;7.55;;
49978;SDS011;35869;50.990;6.962;2024-01-30T11:55:52;8.40;;;6.28;;
49978;SDS011;35869;50.990;6.962;2024-01-30T12:05:58;11.00;;;7.22;;
49978;SDS011;35869;50.990;6.962;2024-01-30T12:10:58;12.70;;;6.97;;
49978;SDS011;35869;50.990;6.962;2024-01-30T12:15:59;10.07;;;6.93;;
49978;SDS011;35869;50.990;6.962;2024-01-30T12:21:00;11.10;;;6.95;;
49978;SDS011;35869;50.990;6.962;2024-01-30T12:26:00;18.33;;;11.48;;
49978;SDS011;35869;50.990;6.962;2024-01-30T12:36:04;11.18;;;6.75;;
49978;SDS011;35869;50.990;6.962;2024-01-30T12:41:06;10.68;;;7.35;;
49978;SDS011;35869;50.990;6.962;2024-01-30T12:46:07;9.77;;;7.32;;
49978;SDS011;35869;50.990;6.962;2024-01-30T12:51:07;14.67;;;7.60;;
49978;SDS011;35869;50.990;6.962;2024-01-30T12:56:07;15.13;;;8.18;;
49978;SDS011;35869;50.990;6.962;2024-01-30T13:01:08;14.23;;;7.15;;
49978;SDS011;35869;50.990;6.962;2024-01-30T13:06:08;9.57;;;6.60;;
49978;SDS011;35869;50.990;6.962;2024-01-30T13:16:08;10.02;;;6.95;;
49978;SDS011;35869;50.990;6.962;2024-01-30T13:21:09;12.30;;;7.45;;
49978;SDS011;35869;50.990;6.962;2024-01-30T13:26:09;7.43;;;6.50;;
49978;SDS011;35869;50.990;6.962;2024-01-30T13:31:09;9.65;;;5.85;;
49978;SDS011;35869;50.990;6.962;2024-01-30T13:36:10;8.52;;;5.80;;
49978;SDS011;35869;50.990;6.962;2024-01-30T13:41:11;6.97;;;4.90;;
49978;SDS011;35869;50.990;6.962;2024-01-30T13:46:11;7.68;;;5.30;;
49978;SDS011;35869;50.990;6.962;2024-01-30T13:51:11;9.40;;;4.88;;
49978;SDS011;35869;50.990;6.962;2024-01-30T13:56:11;8.13;;;3.97;;
49978;SDS011;35869;50.990;6.962;2024-01-30T14:01:12;8.57;;;4.30;;
49978;SDS011;35869;50.990;6.962;2024-01-30T14:06:12;8.48;;;4.75;;
49978;SDS011;35869;50.990;6.962;2024-01-30T14:11:12;8.73;;;4.87;;
49978;SDS011;35869;50.990;6.962;2024-01-30T14:21:13;9.23;;;5.22;;
49978;SDS011;35869;50.990;6.962;2024-01-30T14:26:13;10.88;;;5.78;;
49978;SDS011;35869;50.990;6.962;2024-01-30T14:31:13;6.47;;;4.70;;
49978;SDS011;35869;50.990;6.962;2024-01-30T14:36:13;5.63;;;4.45;;
49978;SDS011;35869;50.990;6.962;2024-01-30T14:46:14;5.72;;;4.57;;
49978;SDS011;35869;50.990;6.962;2024-01-30T14:56:14;5.03;;;4.50;;
49978;SDS011;35869;50.990;6.962;2024-01-30T15:01:15;7.55;;;4.57;;
49978;SDS011;35869;50.990;6.962;2024-01-30T15:06:15;6.78;;;4.40;;
49978;SDS011;35869;50.990;6.962;2024-01-30T15:11:15;7.28;;;5.10;;
49978;SDS011;35869;50.990;6.962;2024-01-30T15:16:15;9.57;;;4.60;;
49978;SDS011;35869;50.990;6.962;2024-01-30T15:26:16;11.80;;;5.63;;
49978;SDS011;35869;50.990;6.962;2024-01-30T15:31:16;12.57;;;5.65;;
49978;SDS011;35869;50.990;6.962;2024-01-30T15:36:16;10.55;;;5.65;;
49978;SDS011;35869;50.990;6.962;2024-01-30T15:46:17;6.05;;;5.32;;
49978;SDS011;35869;50.990;6.962;2024-01-30T15:51:17;9.30;;;5.18;;
49978;SDS011;35869;50.990;6.962;2024-01-30T15:56:17;8.95;;;6.03;;
49978;SDS011;35869;50.990;6.962;2024-01-30T16:01:18;10.98;;;7.68;;
49978;SDS011;35869;50.990;6.962;2024-01-30T16:06:18;7.00;;;5.05;;
49978;SDS011;35869;50.990;6.962;2024-01-30T16:11:18;7.50;;;4.93;;
49978;SDS011;35869;50.990;6.962;2024-01-30T16:16:18;9.27;;;4.53;;
49978;SDS011;35869;50.990;6.962;2024-01-30T16:21:19;5.38;;;3.25;;
49978;SDS011;35869;50.990;6.962;2024-01-30T16:26:19;7.18;;;3.72;;
49978;SDS011;35869;50.990;6.962;2024-01-30T16:36:19;6.50;;;3.60;;
49978;SDS011;35869;50.990;6.962;2024-01-30T16:41:20;6.13;;;4.10;;
49978;SDS011;35869;50.990;6.962;2024-01-30T16:51:21;5.68;;;3.42;;
49978;SDS011;35869;50.990;6.962;2024-01-30T16:56:21;5.85;;;3.53;;
49978;SDS011;35869;50.990;6.962;2024-01-30T17:01:21;5.22;;;2.75;;
49978;SDS011;35869;50.990;6.962;2024-01-30T17:06:21;7.03;;;2.50;;
49978;SDS011;35869;50.990;6.962;2024-01-30T17:16:22;2.88;;;1.83;;
49978;SDS011;35869;50.990;6.962;2024-01-30T17:21:22;4.90;;;1.83;;
49978;SDS011;35869;50.990;6.962;2024-01-30T17:26:22;1.20;;;0.88;;
49978;SDS011;35869;50.990;6.962;2024-01-30T17:31:23;2.50;;;1.07;;
49978;SDS011;35869;50.990;6.962;2024-01-30T17:36:23;1.45;;;0.88;;
49978;SDS011;35869;50.990;6.962;2024-01-30T17:41:23;1.63;;;1.00;;
49978;SDS011;35869;50.990;6.962;2024-01-30T17:46:23;1.58;;;1.10;;
49978;SDS011;35869;50.990;6.962;2024-01-30T17:51:24;2.60;;;1.15;;
49978;SDS011;35869;50.990;6.962;2024-01-30T18:01:24;1.60;;;1.10;;
49978;SDS011;35869;50.990;6.962;2024-01-30T18:06:25;4.07;;;1.17;;
49978;SDS011;35869;50.990;6.962;2024-01-30T18:16:25;0.90;;;0.65;;
49978;SDS011;35869;50.990;6.962;2024-01-30T18:21:26;5.20;;;1.42;;
49978;SDS011;35869;50.990;6.962;2024-01-30T18:31:26;1.45;;;1.10;;
49978;SDS011;35869;50.990;6.962;2024-01-30T18:36:26;2.53;;;0.85;;
49978;SDS011;35869;50.990;6.962;2024-01-30T18:41:26;3.10;;;1.05;;
49978;SDS011;35869;50.990;6.962;2024-01-30T18:46:27;2.05;;;1.48;;
49978;SDS011;35869;50.990;6.962;2024-01-30T18:51:27;2.88;;;1.42;;
49978;SDS011;35869;50.990;6.962;2024-01-30T18:56:27;2.93;;;1.50;;
49978;SDS011;35869;50.990;6.962;2024-01-30T19:01:27;5.55;;;1.65;;
49978;SDS011;35869;50.990;6.962;2024-01-30T19:06:28;3.85;;;1.48;;
49978;SDS011;35869;50.990;6.962;2024-01-30T19:11:28;2.58;;;1.38;;
49978;SDS011;35869;50.990;6.962;2024-01-30T19:16:28;2.15;;;1.30;;
49978;SDS011;35869;50.990;6.962;2024-01-30T19:26:29;2.42;;;1.88;;
49978;SDS011;35869;50.990;6.962;2024-01-30T19:31:29;2.38;;;1.80;;
49978;SDS011;35869;50.990;6.962;2024-01-30T19:36:29;4.20;;;1.85;;
49978;SDS011;35869;50.990;6.962;2024-01-30T19:41:29;6.05;;;2.20;;
49978;SDS011;35869;50.990;6.962;2024-01-30T19:46:29;3.50;;;2.42;;
49978;SDS011;35869;50.990;6.962;2024-01-30T19:51:30;3.25;;;2.25;;
49978;SDS011;35869;50.990;6.962;2024-01-30T19:56:30;3.10;;;2.00;;
49978;SDS011;35869;50.990;6.962;2024-01-30T20:01:30;2.80;;;2.53;;
49978;SDS011;35869;50.990;6.962;2024-01-30T20:06:30;5.38;;;2.50;;
49978;SDS011;35869;50.990;6.962;2024-01-30T20:11:30;3.53;;;2.35;;
49978;SDS011;35869;50.990;6.962;2024-01-30T20:16:41;5.45;;;2.22;;
49978;SDS011;35869;50.990;6.962;2024-01-30T20:21:42;4.40;;;2.20;;
49978;SDS011;35869;50.990;6.962;2024-01-30T20:26:42;3.85;;;1.95;;
49978;SDS011;35869;50.990;6.962;2024-01-30T20:31:42;4.30;;;1.80;;
49978;SDS011;35869;50.990;6.962;2024-01-30T20:36:43;3.63;;;1.83;;
49978;SDS011;35869;50.990;6.962;2024-01-30T20:41:43;3.03;;;1.98;;
49978;SDS011;35869;50.990;6.962;2024-01-30T20:46:43;2.60;;;1.88;;
49978;SDS011;35869;50.990;6.962;2024-01-30T20:51:43;5.93;;;1.60;;
49978;SDS011;35869;50.990;6.962;2024-01-30T20:56:44;4.55;;;2.10;;
49978;SDS011;35869;50.990;6.962;2024-01-30T21:01:44;3.05;;;1.50;;
49978;SDS011;35869;50.990;6.962;2024-01-30T21:06:44;2.60;;;2.08;;
49978;SDS011;35869;50.990;6.962;2024-01-30T21:11:44;8.07;;;1.77;;
49978;SDS011;35869;50.990;6.962;2024-01-30T21:16:44;3.10;;;1.90;;
49978;SDS011;35869;50.990;6.962;2024-01-30T21:21:45;3.50;;;2.80;;
49978;SDS011;35869;50.990;6.962;2024-01-30T21:26:45;2.63;;;2.08;;
49978;SDS011;35869;50.990;6.962;2024-01-30T21:31:45;3.30;;;2.13;;
49978;SDS011;35869;50.990;6.962;2024-01-30T21:36:45;4.80;;;3.08;;
49978;SDS011;35869;50.990;6.962;2024-01-30T21:41:46;5.68;;;2.83;;
49978;SDS011;35869;50.990;6.962;2024-01-30T21:46:46;4.22;;;1.85;;
49978;SDS011;35869;50.990;6.962;2024-01-30T21:51:47;4.88;;;2.50;;
49978;SDS011;35869;50.990;6.962;2024-01-30T21:56:47;2.22;;;1.95;;
49978;SDS011;35869;50.990;6.962;2024-01-30T22:01:47;5.47;;;2.05;;
49978;SDS011;35869;50.990;6.962;2024-01-30T22:06:48;3.63;;;2.15;;
49978;SDS011;35869;50.990;6.962;2024-01-30T22:11:48;2.47;;;1.93;;
49978;SDS011;35869;50.990;6.962;2024-01-30T22:16:49;8.00;;;2.65;;
49978;SDS011;35869;50.990;6.962;2024-01-30T22:21:49;3.60;;;2.47;;
49978;SDS011;35869;50.990;6.962;2024-01-30T22:26:49;5.22;;;2.92;;
49978;SDS011;35869;50.990;6.962;2024-01-30T22:31:49;5.70;;;3.20;;
49978;SDS011;35869;50.990;6.962;2024-01-30T22:36:50;5.38;;;3.00;;
49978;SDS011;35869;50.990;6.962;2024-01-30T22:41:50;3.95;;;2.80;;
49978;SDS011;35869;50.990;6.962;2024-01-30T22:46:50;3.95;;;2.72;;
49978;SDS011;35869;50.990;6.962;2024-01-30T22:51:50;5.40;;;3.38;;
49978;SDS011;35869;50.990;6.962;2024-01-30T22:56:50;6.47;;;3.80;;
49978;SDS011;35869;50.990;6.962;2024-01-30T23:01:51;4.88;;;3.15;;
49978;SDS011;35869;50.990;6.962;2024-01-30T23:06:51;6.68;;;3.70;;
49978;SDS011;35869;50.990;6.962;2024-01-30T23:11:51;9.77;;;3.58;;
49978;SDS011;35869;50.990;6.962;2024-01-30T23:16:51;5.97;;;4.15;;
49978;SDS011;35869;50.990;6.962;2024-01-30T23:21:51;5.45;;;3.90;;
49978;SDS011;35869;50.990;6.962;2024-01-30T23:26:52;7.40;;;4.10;;
49978;SDS011;35869;50.990;6.962;2024-01-30T23:31:52;6.75;;;4.10;;
49978;SDS011;35869;50.990;6.962;2024-01-30T23:36:52;5.93;;;4.28;;
49978;SDS011;35869;50.990;6.962;2024-01-30T23:41:52;7.70;;;4.60;;
49978;SDS011;35869;50.990;6.962;2024-01-30T23:46:53;8.55;;;4.50;;
49978;SDS011;35869;50.990;6.962;2024-01-30T23:51:53;8.05;;;5.00;;
49978;SDS011;35869;50.990;6.962;2024-01-30T23:56:53;8.95;;;5.30;;
